createdAt,value
2023-11-18T00:02:07.240Z,1.74
2023-11-18T00:04:34.853Z,1.74
2023-11-18T00:07:02.402Z,1.78
2023-11-18T00:09:29.881Z,1.77
2023-11-18T00:11:58.869Z,1.66
2023-11-18T00:14:26.438Z,1.59
2023-11-18T00:16:54.275Z,1.62
2023-11-18T00:19:21.884Z,1.65
2023-11-18T00:21:50.176Z,1.68
2023-11-18T00:24:17.651Z,1.65
2023-11-18T00:26:45.182Z,1.77
2023-11-18T00:29:14.032Z,1.78
2023-11-18T00:31:41.724Z,1.72
2023-11-18T00:34:09.311Z,1.73
2023-11-18T00:36:36.821Z,1.79
2023-11-18T00:39:05.310Z,1.80
2023-11-18T00:41:32.907Z,1.88
2023-11-18T00:44:00.619Z,2.00
2023-11-18T00:46:29.681Z,1.97
2023-11-18T00:48:59.855Z,1.88
2023-11-18T00:51:27.931Z,1.93
2023-11-18T00:53:56.645Z,1.89
2023-11-18T00:56:24.264Z,1.87
2023-11-18T00:58:51.860Z,1.83
2023-11-18T01:01:19.480Z,1.80
2023-11-18T01:03:48.692Z,1.77
2023-11-18T01:06:17.223Z,1.73
2023-11-18T01:08:46.157Z,1.75
2023-11-18T01:11:19.776Z,1.68
2023-11-18T01:13:47.393Z,1.61
2023-11-18T01:16:15.821Z,1.53
2023-11-18T01:18:43.937Z,1.49
2023-11-18T01:21:13.806Z,1.50
2023-11-18T01:23:43.724Z,1.38
2023-11-18T01:26:13.415Z,1.37
2023-11-18T01:28:43.635Z,1.28
2023-11-18T01:31:11.877Z,1.31
2023-11-18T01:33:41.059Z,1.31
2023-11-18T01:36:10.464Z,1.28
2023-11-18T01:38:39.830Z,1.21
2023-11-18T01:41:08.193Z,1.17
2023-11-18T01:43:36.092Z,1.19
2023-11-18T01:46:06.776Z,1.20
2023-11-18T01:48:35.147Z,1.27
2023-11-18T01:51:05.397Z,1.21
2023-11-18T01:53:34.220Z,1.27
2023-11-18T01:56:06.219Z,1.15
2023-11-18T01:58:36.711Z,1.10
2023-11-18T02:01:08.422Z,1.15
2023-11-18T02:03:36.538Z,1.07
2023-11-18T02:06:05.753Z,1.06
2023-11-18T02:08:36.073Z,0.97
2023-11-18T02:11:16.310Z,0.86
2023-11-18T02:13:48.929Z,0.88
2023-11-18T02:16:17.332Z,0.99
2023-11-18T02:18:45.453Z,0.95
2023-11-18T02:21:15.200Z,0.88
2023-11-18T02:23:43.141Z,0.95
2023-11-18T02:26:12.048Z,1.01
2023-11-18T02:28:39.636Z,0.97
2023-11-18T02:31:16.518Z,0.96
2023-11-18T02:33:52.820Z,0.99
2023-11-18T02:36:26.144Z,1.05
2023-11-18T02:38:56.114Z,1.03
2023-11-18T02:41:26.588Z,0.99
2023-11-18T02:43:54.747Z,0.97
2023-11-18T02:46:24.397Z,1.03
2023-11-18T02:48:55.057Z,1.04
2023-11-18T02:51:23.456Z,1.07
2023-11-18T02:53:51.354Z,1.23
2023-11-18T02:56:19.835Z,1.15
2023-11-18T02:58:48.796Z,1.01
2023-11-18T03:01:16.514Z,0.93
2023-11-18T03:03:44.313Z,0.93
2023-11-18T03:06:12.449Z,0.94
2023-11-18T03:08:42.513Z,0.87
2023-11-18T03:11:10.740Z,0.83
2023-11-18T03:13:39.685Z,0.80
2023-11-18T03:16:12.471Z,0.76
2023-11-18T03:18:41.007Z,0.75
2023-11-18T03:21:13.229Z,0.69
2023-11-18T03:23:41.785Z,0.71
2023-11-18T03:26:09.809Z,0.79
2023-11-18T03:28:38.678Z,0.96
2023-11-18T03:31:06.504Z,1.13
2023-11-18T03:33:35.655Z,1.37
2023-11-18T03:36:04.265Z,1.51
2023-11-18T03:38:31.798Z,1.58
2023-11-18T03:40:59.893Z,1.63
2023-11-18T03:43:27.701Z,1.76
2023-11-18T03:45:57.523Z,1.86
2023-11-18T03:48:25.369Z,1.91
2023-11-18T03:50:54.948Z,2.04
2023-11-18T03:53:22.502Z,1.96
2023-11-18T03:55:51.883Z,1.90
2023-11-18T03:58:19.430Z,1.89
2023-11-18T04:00:46.929Z,1.93
2023-11-18T04:03:14.460Z,1.96
2023-11-18T04:05:41.957Z,1.97
2023-11-18T04:08:10.876Z,2.01
2023-11-18T04:10:38.464Z,2.01
2023-11-18T04:13:06.056Z,2.04
2023-11-18T04:15:33.648Z,1.99
2023-11-18T04:18:01.215Z,2.04
2023-11-18T04:20:28.726Z,2.03
2023-11-18T04:22:56.309Z,2.04
2023-11-18T04:25:26.371Z,2.07
2023-11-18T04:27:53.928Z,2.04
2023-11-18T04:30:21.871Z,1.89
2023-11-18T04:32:49.409Z,1.86
2023-11-18T04:35:18.208Z,1.88
2023-11-18T04:37:47.101Z,1.88
2023-11-18T04:40:14.827Z,1.90
2023-11-18T04:42:43.669Z,1.89
2023-11-18T04:45:11.536Z,1.93
2023-11-18T04:47:39.961Z,1.93
2023-11-18T04:50:09.593Z,1.94
2023-11-18T04:52:37.591Z,2.08
2023-11-18T04:55:07.101Z,2.10
2023-11-18T04:57:35.007Z,2.11
2023-11-18T05:00:11.833Z,2.15
2023-11-18T05:02:39.987Z,2.14
2023-11-18T05:05:08.142Z,2.15
2023-11-18T05:07:36.258Z,2.21
2023-11-18T05:10:05.120Z,2.23
2023-11-18T05:12:34.462Z,2.25
2023-11-18T05:15:02.344Z,2.26
2023-11-18T05:17:31.551Z,2.24
2023-11-18T05:19:59.110Z,2.29
2023-11-18T05:22:26.676Z,2.28
2023-11-18T05:24:54.211Z,2.20
2023-11-18T05:27:21.747Z,2.20
2023-11-18T05:29:55.242Z,2.23
2023-11-18T05:32:23.923Z,2.23
2023-11-18T05:34:54.819Z,2.28
2023-11-18T05:37:22.744Z,2.31
2023-11-18T05:39:54.448Z,2.37
2023-11-18T05:42:22.063Z,2.39
2023-11-18T05:44:50.270Z,2.38
2023-11-18T05:47:17.864Z,2.37
2023-11-18T05:49:45.411Z,2.35
2023-11-18T05:52:14.278Z,2.44
2023-11-18T05:54:41.786Z,2.52
2023-11-18T05:57:09.558Z,2.58
2023-11-18T05:59:37.109Z,2.56
2023-11-18T06:02:05.124Z,2.65
2023-11-18T06:04:32.953Z,2.64
2023-11-18T06:07:00.474Z,2.69
2023-11-18T06:09:29.524Z,2.75
2023-11-18T06:11:57.074Z,2.56
2023-11-18T06:14:24.621Z,2.53
2023-11-18T06:16:53.104Z,2.39
2023-11-18T06:19:21.955Z,2.49
2023-11-18T06:21:49.459Z,2.46
2023-11-18T06:24:18.257Z,2.59
2023-11-18T06:26:47.883Z,2.59
2023-11-18T06:29:16.501Z,2.49
2023-11-18T06:31:44.639Z,2.50
2023-11-18T06:34:13.868Z,2.42
2023-11-18T06:36:41.384Z,2.51
2023-11-18T06:39:09.685Z,2.73
2023-11-18T06:41:40.586Z,2.81
2023-11-18T06:44:13.714Z,2.57
2023-11-18T06:46:42.174Z,2.58
2023-11-18T06:49:12.005Z,2.55
2023-11-18T06:51:39.864Z,2.72
2023-11-18T06:54:10.283Z,2.56
2023-11-18T06:56:39.627Z,2.49
2023-11-18T06:59:09.105Z,2.51
2023-11-18T07:01:37.242Z,2.57
2023-11-18T07:04:09.616Z,2.65
2023-11-18T07:06:39.253Z,2.78
2023-11-18T07:09:13.537Z,2.92
2023-11-18T07:11:41.925Z,2.74
2023-11-18T07:14:11.157Z,2.93
2023-11-18T07:16:40.365Z,2.98
2023-11-18T07:19:08.215Z,2.82
2023-11-18T07:21:35.938Z,2.83
2023-11-18T07:24:04.299Z,2.85
2023-11-18T07:26:31.809Z,3.00
2023-11-18T07:28:59.326Z,3.08
2023-11-18T07:31:28.247Z,2.97
2023-11-18T07:33:55.774Z,2.93
2023-11-18T07:36:22.346Z,2.97
2023-11-18T07:38:51.245Z,2.98
2023-11-18T07:41:25.464Z,3.01
2023-11-18T07:43:53.828Z,2.96
2023-11-18T07:46:23.281Z,2.87
2023-11-18T07:48:52.912Z,2.86
2023-11-18T07:51:22.428Z,2.92
2023-11-18T07:53:50.058Z,2.97
2023-11-18T07:56:18.488Z,2.92
2023-11-18T07:58:47.654Z,3.00
2023-11-18T08:01:17.268Z,2.92
2023-11-18T08:03:45.340Z,2.95
2023-11-18T08:06:14.264Z,2.87
2023-11-18T08:08:42.047Z,2.92
2023-11-18T08:11:12.853Z,3.00
2023-11-18T08:13:40.680Z,3.17
2023-11-18T08:16:09.633Z,3.40
2023-11-18T08:18:37.735Z,3.57
2023-11-18T08:21:08.211Z,3.63
2023-11-18T08:23:38.182Z,3.68
2023-11-18T08:26:07.130Z,3.79
2023-11-18T08:28:35.274Z,3.86
2023-11-18T08:31:03.006Z,3.92
2023-11-18T08:33:31.605Z,3.97
2023-11-18T08:35:59.195Z,3.97
2023-11-18T08:38:29.137Z,4.01
2023-11-18T08:40:58.123Z,4.04
2023-11-18T08:43:26.462Z,4.16
2023-11-18T08:45:54.144Z,4.14
2023-11-18T08:48:23.954Z,4.14
2023-11-18T08:50:52.653Z,4.29
2023-11-18T08:53:24.616Z,4.25
2023-11-18T08:55:54.996Z,4.20
2023-11-18T08:58:28.194Z,4.47
2023-11-18T09:00:59.035Z,4.61
2023-11-18T09:03:28.683Z,4.63
2023-11-18T09:06:05.050Z,4.24
2023-11-18T09:08:36.137Z,4.28
2023-11-18T09:11:06.117Z,4.38
2023-11-18T09:13:36.830Z,4.73
2023-11-18T09:16:09.409Z,4.83
2023-11-18T09:18:41.452Z,4.84
2023-11-18T09:21:15.395Z,4.93
2023-11-18T09:23:44.411Z,4.85
2023-11-18T09:26:12.119Z,4.97
2023-11-18T09:28:41.327Z,5.02
2023-11-18T09:31:12.570Z,5.07
2023-11-18T09:33:45.915Z,5.05
2023-11-18T09:36:18.535Z,5.22
2023-11-18T09:38:49.106Z,5.14
2023-11-18T09:41:17.888Z,5.01
2023-11-18T09:43:49.024Z,5.14
2023-11-18T09:46:19.943Z,4.84
2023-11-18T09:48:53.547Z,4.81
2023-11-18T09:51:23.874Z,4.96
2023-11-18T09:53:53.539Z,4.87
2023-11-18T09:56:38.748Z,4.91
2023-11-18T09:59:31.099Z,4.85
2023-11-18T10:02:00.170Z,4.85
2023-11-18T10:04:28.701Z,4.96
2023-11-18T10:06:57.618Z,5.07
2023-11-18T10:09:29.451Z,5.05
2023-11-18T10:12:01.649Z,4.95
2023-11-18T10:14:30.784Z,4.92
2023-11-18T10:16:58.714Z,5.06
2023-11-18T10:19:27.083Z,5.21
2023-11-18T10:21:57.833Z,5.11
2023-11-18T10:24:26.191Z,5.03
2023-11-18T10:26:58.191Z,5.06
2023-11-18T10:29:29.083Z,5.08
2023-11-18T10:32:11.148Z,5.11
2023-11-18T10:34:39.636Z,5.17
2023-11-18T10:37:07.803Z,5.20
2023-11-18T10:39:36.787Z,5.22
2023-11-18T10:42:06.133Z,5.40
2023-11-18T10:44:33.669Z,5.37
2023-11-18T10:47:01.400Z,5.47
2023-11-18T10:49:37.791Z,5.44
2023-11-18T10:52:09.665Z,5.77
2023-11-18T10:54:38.612Z,5.91
2023-11-18T10:57:10.257Z,5.81
2023-11-18T10:59:38.830Z,5.78
2023-11-18T11:02:25.198Z,6.00
2023-11-18T11:04:54.354Z,5.77
2023-11-18T11:07:24.803Z,5.71
2023-11-18T11:09:57.530Z,5.72
2023-11-18T11:12:27.735Z,5.78
2023-11-18T11:15:01.696Z,5.84
2023-11-18T11:17:32.102Z,5.88
2023-11-18T11:20:19.179Z,5.89
2023-11-18T11:22:59.120Z,6.06
2023-11-18T11:25:33.144Z,6.36
2023-11-18T11:28:11.430Z,6.63
2023-11-18T11:30:45.224Z,6.27
2023-11-18T11:33:20.393Z,6.64
2023-11-18T11:35:56.833Z,6.75
2023-11-18T11:38:25.563Z,6.79
2023-11-18T11:40:54.037Z,6.49
2023-11-18T11:43:23.039Z,6.80
2023-11-18T11:45:52.879Z,6.88
2023-11-18T11:48:27.522Z,6.93
2023-11-18T11:51:27.354Z,6.85
2023-11-18T11:54:01.447Z,6.78
2023-11-18T11:56:42.341Z,6.74
2023-11-18T11:59:12.415Z,6.72
2023-11-18T12:01:41.386Z,6.63
2023-11-18T12:04:12.092Z,6.70
2023-11-18T12:06:45.306Z,6.69
2023-11-18T12:09:20.367Z,6.77
2023-11-18T12:11:49.910Z,6.90
2023-11-18T12:14:39.020Z,6.86
2023-11-18T12:17:11.150Z,6.85
2023-11-18T12:19:47.422Z,7.01
2023-11-18T12:22:25.195Z,6.87
2023-11-18T12:25:33.720Z,6.78
2023-11-18T12:28:09.414Z,6.90
2023-11-18T12:30:44.742Z,7.12
2023-11-18T12:33:19.476Z,6.93
2023-11-18T12:36:29.042Z,6.92
2023-11-18T12:39:26.480Z,6.83
2023-11-18T12:42:07.950Z,6.82
2023-11-18T12:44:40.980Z,6.88
2023-11-18T12:47:15.995Z,6.86
2023-11-18T12:49:44.320Z,6.95
2023-11-18T12:52:15.830Z,6.82
2023-11-18T12:54:44.699Z,6.83
2023-11-18T12:57:15.222Z,6.77
2023-11-18T12:59:44.020Z,6.87
2023-11-18T13:02:14.652Z,6.87
2023-11-18T13:04:42.437Z,6.76
2023-11-18T13:07:12.456Z,6.87
2023-11-18T13:09:42.035Z,6.83
2023-11-18T13:12:10.109Z,7.00
2023-11-18T13:14:40.582Z,7.07
2023-11-18T13:17:16.828Z,6.90
2023-11-18T13:19:46.237Z,6.89
2023-11-18T13:22:15.586Z,7.06
2023-11-18T13:24:45.106Z,7.01
2023-11-18T13:27:17.133Z,7.06
2023-11-18T13:29:50.039Z,6.90
2023-11-18T13:32:17.976Z,6.97
2023-11-18T13:34:45.645Z,7.06
2023-11-18T13:37:17.856Z,7.02
2023-11-18T13:39:48.220Z,7.14
2023-11-18T13:42:23.891Z,7.05
2023-11-18T13:44:54.385Z,7.11
2023-11-18T13:47:23.932Z,6.93
2023-11-18T13:49:53.442Z,6.97
2023-11-18T13:52:22.043Z,6.95
2023-11-18T13:54:54.520Z,6.82
2023-11-18T13:57:23.099Z,7.10
2023-11-18T13:59:52.824Z,7.18
2023-11-18T14:02:22.409Z,7.21
2023-11-18T14:04:52.270Z,7.29
2023-11-18T14:07:19.963Z,7.16
2023-11-18T14:09:47.598Z,6.95
2023-11-18T14:12:15.980Z,7.07
2023-11-18T14:14:43.572Z,7.13
2023-11-18T14:17:12.551Z,7.08
2023-11-18T14:19:42.572Z,7.09
2023-11-18T14:22:10.700Z,7.14
2023-11-18T14:24:39.257Z,6.96
2023-11-18T14:27:08.837Z,7.03
2023-11-18T14:29:37.481Z,7.01
2023-11-18T14:32:07.163Z,6.96
2023-11-18T14:34:36.090Z,6.86
2023-11-18T14:37:04.755Z,6.90
2023-11-18T14:39:33.598Z,6.90
2023-11-18T14:42:01.172Z,6.97
2023-11-18T14:44:28.782Z,7.12
2023-11-18T14:46:56.817Z,7.07
2023-11-18T14:49:24.960Z,6.86
2023-11-18T14:51:54.033Z,6.88
2023-11-18T14:54:21.559Z,6.82
2023-11-18T14:56:50.097Z,6.81
2023-11-18T14:59:17.830Z,6.91
2023-11-18T15:01:45.595Z,6.88
2023-11-18T15:04:13.273Z,6.75
2023-11-18T15:06:41.989Z,6.71
2023-11-18T15:09:12.001Z,6.86
2023-11-18T15:11:39.696Z,6.90
2023-11-18T15:14:08.818Z,6.82
2023-11-18T15:16:36.559Z,6.78
2023-11-18T15:19:04.588Z,6.84
2023-11-18T15:21:32.224Z,7.00
2023-11-18T15:24:02.036Z,6.87
2023-11-18T15:26:32.496Z,6.89
2023-11-18T15:29:02.687Z,6.91
2023-11-18T15:31:30.620Z,6.84
2023-11-18T15:33:58.987Z,6.86
2023-11-18T15:36:26.615Z,6.70
2023-11-18T15:38:54.225Z,6.79
2023-11-18T15:41:23.215Z,6.88
2023-11-18T15:43:53.526Z,6.88
2023-11-18T15:46:21.069Z,6.81
2023-11-18T15:48:48.708Z,6.74
2023-11-18T15:51:17.153Z,6.83
2023-11-18T15:53:45.034Z,6.68
2023-11-18T15:56:12.811Z,6.76
2023-11-18T15:58:40.569Z,6.69
2023-11-18T16:01:10.938Z,6.64
2023-11-18T16:03:38.703Z,6.71
2023-11-18T16:06:07.085Z,6.63
2023-11-18T16:08:35.697Z,6.67
2023-11-18T16:11:03.798Z,6.64
2023-11-18T16:13:31.429Z,6.62
2023-11-18T16:15:59.025Z,6.64
2023-11-18T16:18:27.933Z,6.66
2023-11-18T16:20:59.201Z,6.55
2023-11-18T16:23:30.980Z,6.64
2023-11-18T16:25:58.988Z,6.54
2023-11-18T16:28:28.318Z,6.59
2023-11-18T16:30:56.894Z,6.56
2023-11-18T16:33:25.487Z,6.63
2023-11-18T16:35:54.546Z,6.58
2023-11-18T16:38:22.232Z,6.73
2023-11-18T16:40:50.003Z,6.73
2023-11-18T16:43:17.604Z,6.57
2023-11-18T16:45:45.467Z,6.59
2023-11-18T16:48:13.130Z,6.72
2023-11-18T16:50:41.200Z,6.68
2023-11-18T16:53:12.127Z,6.67
2023-11-18T16:55:39.751Z,6.69
2023-11-18T16:58:08.079Z,6.67
2023-11-18T17:00:35.645Z,6.64
2023-11-18T17:03:05.073Z,6.61
2023-11-18T17:05:33.334Z,6.56
2023-11-18T17:08:02.248Z,6.62
2023-11-18T17:10:31.649Z,6.69
2023-11-18T17:13:01.267Z,6.58
2023-11-18T17:15:29.873Z,6.64
2023-11-18T17:18:02.812Z,6.60
2023-11-18T17:20:31.762Z,6.64
2023-11-18T17:22:59.694Z,6.62
2023-11-18T17:25:27.485Z,6.54
2023-11-18T17:27:57.047Z,6.60
2023-11-18T17:30:24.580Z,6.53
2023-11-18T17:32:54.110Z,6.51
2023-11-18T17:35:22.916Z,6.56
2023-11-18T17:37:51.076Z,6.51
2023-11-18T17:40:22.314Z,6.46
2023-11-18T17:42:54.199Z,6.46
2023-11-18T17:45:25.138Z,6.46
2023-11-18T17:47:53.018Z,6.47
2023-11-18T17:50:20.675Z,6.49
2023-11-18T17:52:48.733Z,6.51
2023-11-18T17:55:16.876Z,6.53
2023-11-18T17:57:45.826Z,6.58
2023-11-18T18:00:20.471Z,6.56
2023-11-18T18:02:50.085Z,6.61
2023-11-18T18:05:18.127Z,6.61
2023-11-18T18:07:45.835Z,6.64
2023-11-18T18:10:13.692Z,6.61
2023-11-18T18:12:44.092Z,6.71
2023-11-18T18:15:13.961Z,6.67
2023-11-18T18:17:41.857Z,6.74
2023-11-18T18:20:11.514Z,6.70
2023-11-18T18:22:38.626Z,6.77
2023-11-18T18:25:07.187Z,6.71
2023-11-18T18:27:35.252Z,6.68
2023-11-18T18:30:03.223Z,6.76
2023-11-18T18:32:31.221Z,6.77
2023-11-18T18:34:59.593Z,6.71
2023-11-18T18:37:28.792Z,6.72
2023-11-18T18:39:57.072Z,6.72
2023-11-18T18:42:25.362Z,6.77
2023-11-18T18:44:55.302Z,6.80
2023-11-18T18:47:25.297Z,6.86
2023-11-18T18:49:54.431Z,6.86
2023-11-18T18:52:21.993Z,6.75
2023-11-18T18:54:50.970Z,6.75
2023-11-18T18:57:18.897Z,6.84
2023-11-18T18:59:46.962Z,6.76
2023-11-18T19:02:15.421Z,6.91
2023-11-18T19:04:43.392Z,6.78
2023-11-18T19:07:11.276Z,6.85
2023-11-18T19:09:38.867Z,6.74
2023-11-18T19:12:09.188Z,6.79
2023-11-18T19:14:36.969Z,6.80
2023-11-18T19:17:05.260Z,6.70
2023-11-18T19:19:33.270Z,6.76
2023-11-18T19:22:01.832Z,6.75
2023-11-18T19:24:31.632Z,6.85
2023-11-18T19:26:59.228Z,6.89
2023-11-18T19:29:28.275Z,6.78
2023-11-18T19:31:56.015Z,6.72
2023-11-18T19:34:23.626Z,6.73
2023-11-18T19:36:51.413Z,6.70
2023-11-18T19:39:20.584Z,6.83
2023-11-18T19:41:48.376Z,6.73
2023-11-18T19:44:17.183Z,6.74
2023-11-18T19:46:50.818Z,6.71
2023-11-18T19:49:18.671Z,6.76
2023-11-18T19:51:46.662Z,6.68
2023-11-18T19:54:14.274Z,6.81
2023-11-18T19:56:41.869Z,6.83
2023-11-18T19:59:09.598Z,6.75
2023-11-18T20:01:38.136Z,6.76
2023-11-18T20:04:07.404Z,6.76
2023-11-18T20:06:35.407Z,6.70
2023-11-18T20:09:03.955Z,6.73
2023-11-18T20:11:32.265Z,6.79
2023-11-18T20:14:00.857Z,6.77
2023-11-18T20:16:29.665Z,6.70
2023-11-18T20:18:57.351Z,6.71
2023-11-18T20:21:26.229Z,6.77
2023-11-18T20:23:53.840Z,6.72
2023-11-18T20:26:22.408Z,6.73
2023-11-18T20:28:50.087Z,6.76
2023-11-18T20:31:17.825Z,6.76
2023-11-18T20:33:45.387Z,6.78
2023-11-18T20:36:12.909Z,6.75
2023-11-18T20:38:41.867Z,6.81
2023-11-18T20:41:09.530Z,6.80
2023-11-18T20:43:37.334Z,6.82
2023-11-18T20:46:06.362Z,6.80
2023-11-18T20:48:33.977Z,6.88
2023-11-18T20:51:01.502Z,6.80
2023-11-18T20:53:29.105Z,6.82
2023-11-18T20:55:58.205Z,6.84
2023-11-18T20:58:26.798Z,6.83
2023-11-18T21:00:54.430Z,6.80
2023-11-18T21:03:22.831Z,6.86
2023-11-18T21:05:51.088Z,6.90
2023-11-18T21:08:19.135Z,6.85
2023-11-18T21:10:47.944Z,6.84
2023-11-18T21:13:17.703Z,6.84
2023-11-18T21:15:45.246Z,6.87
2023-11-18T21:18:13.665Z,6.92
2023-11-18T21:20:41.346Z,6.90
2023-11-18T21:23:09.241Z,6.89
2023-11-18T21:25:36.886Z,6.91
2023-11-18T21:28:05.520Z,6.93
2023-11-18T21:30:34.788Z,6.95
2023-11-18T21:33:05.192Z,6.94
2023-11-18T21:35:33.199Z,6.94
2023-11-18T21:38:01.015Z,7.03
2023-11-18T21:40:30.155Z,7.04
2023-11-18T21:42:58.815Z,7.02
2023-11-18T21:45:28.810Z,7.04
2023-11-18T21:48:00.795Z,7.08
2023-11-18T21:50:29.215Z,7.03
2023-11-18T21:52:56.883Z,7.02
2023-11-18T21:55:24.847Z,6.98
2023-11-18T21:57:52.518Z,7.05
2023-11-18T22:00:20.683Z,7.01
2023-11-18T22:02:49.251Z,7.01
2023-11-18T22:05:19.068Z,7.12
2023-11-18T22:07:47.429Z,7.15
2023-11-18T22:10:16.648Z,7.17
2023-11-18T22:12:44.229Z,7.07
2023-11-18T22:15:15.965Z,7.07
2023-11-18T22:17:44.299Z,7.13
2023-11-18T22:20:14.410Z,7.11
2023-11-18T22:22:43.954Z,7.12
2023-11-18T22:25:13.989Z,7.15
2023-11-18T22:27:41.898Z,7.11
2023-11-18T22:30:12.839Z,7.10
2023-11-18T22:32:41.480Z,7.20
2023-11-18T22:35:10.459Z,7.17
2023-11-18T22:37:38.133Z,7.22
2023-11-18T22:40:16.507Z,7.22
2023-11-18T22:42:45.757Z,7.23
2023-11-18T22:45:17.221Z,7.23
2023-11-18T22:47:45.801Z,7.24
2023-11-18T22:50:14.609Z,7.24
2023-11-18T22:52:42.383Z,7.25
2023-11-18T22:57:42.793Z,7.30
2023-11-18T23:00:15.862Z,7.37
2023-11-18T23:02:43.706Z,7.39
2023-11-18T23:05:15.165Z,7.35
2023-11-18T23:07:45.477Z,7.38
2023-11-18T23:10:16.359Z,7.34
2023-11-18T23:12:44.249Z,7.34
2023-11-18T23:15:12.396Z,7.35
2023-11-18T23:17:40.030Z,7.43
2023-11-18T23:20:12.390Z,7.52
2023-11-18T23:22:40.328Z,7.47
2023-11-18T23:25:08.742Z,7.45
2023-11-18T23:27:37.822Z,7.40
2023-11-18T23:30:08.106Z,7.41
2023-11-18T23:32:35.730Z,7.43
2023-11-18T23:35:06.714Z,7.51
2023-11-18T23:37:34.309Z,7.45
2023-11-18T23:40:03.750Z,7.48
2023-11-18T23:42:32.958Z,7.47
2023-11-18T23:45:05.497Z,7.56
2023-11-18T23:47:33.072Z,7.53
2023-11-18T23:50:00.600Z,7.50
2023-11-18T23:52:28.237Z,7.52
2023-11-18T23:54:55.773Z,7.55
2023-11-18T23:57:23.527Z,7.56
2023-11-18T23:59:51.161Z,7.60
